createdAt,value
2019-02-24T00:01:41.944Z,100.00
2019-02-24T00:04:12.709Z,100.00
2019-02-24T00:06:43.482Z,100.00
2019-02-24T00:09:14.247Z,100.00
2019-02-24T00:11:45.026Z,100.00
2019-02-24T00:14:15.791Z,100.00
2019-02-24T00:16:46.551Z,100.00
2019-02-24T00:19:17.320Z,100.00
2019-02-24T00:21:48.077Z,100.00
2019-02-24T00:24:18.843Z,100.00
2019-02-24T00:26:49.614Z,100.00
2019-02-24T00:29:20.379Z,100.00
2019-02-24T00:31:51.133Z,100.00
2019-02-24T00:34:21.898Z,100.00
2019-02-24T00:36:52.671Z,100.00
2019-02-24T00:39:23.462Z,100.00
2019-02-24T00:41:54.269Z,100.00
2019-02-24T00:44:25.029Z,100.00
2019-02-24T00:46:55.786Z,100.00
2019-02-24T00:49:26.550Z,100.00
2019-02-24T00:51:57.307Z,100.00
2019-02-24T00:54:28.198Z,100.00
2019-02-24T00:56:58.958Z,100.00
2019-02-24T00:59:29.732Z,100.00
2019-02-24T01:02:00.488Z,100.00
2019-02-24T01:04:31.250Z,100.00
2019-02-24T01:07:02.122Z,100.00
2019-02-24T01:09:32.887Z,100.00
2019-02-24T01:12:03.644Z,100.00
2019-02-24T01:14:34.433Z,100.00
2019-02-24T01:17:05.499Z,100.00
2019-02-24T01:19:36.261Z,100.00
2019-02-24T01:22:07.014Z,100.00
2019-02-24T01:24:37.807Z,100.00
2019-02-24T01:27:08.566Z,100.00
2019-02-24T01:29:39.330Z,100.00
2019-02-24T01:32:10.087Z,100.00
2019-02-24T01:34:40.858Z,100.00
2019-02-24T01:37:11.611Z,100.00
2019-02-24T01:39:42.378Z,100.00
2019-02-24T01:42:13.130Z,100.00
2019-02-24T01:44:43.894Z,100.00
2019-02-24T01:47:14.670Z,100.00
2019-02-24T01:49:45.453Z,100.00
2019-02-24T01:52:16.205Z,100.00
2019-02-24T01:54:46.990Z,100.00
2019-02-24T01:57:17.751Z,100.00
2019-02-24T01:59:48.521Z,100.00
2019-02-24T02:02:19.298Z,100.00
2019-02-24T02:04:50.136Z,100.00
2019-02-24T02:07:20.894Z,100.00
2019-02-24T02:09:51.677Z,100.00
2019-02-24T02:12:22.474Z,100.00
2019-02-24T02:14:53.200Z,100.00
2019-02-24T02:17:23.962Z,100.00
2019-02-24T02:19:54.742Z,100.00
2019-02-24T02:22:25.504Z,100.00
2019-02-24T02:24:56.309Z,100.00
2019-02-24T02:27:27.034Z,100.00
2019-02-24T02:29:57.811Z,100.00
2019-02-24T02:32:28.565Z,100.00
2019-02-24T02:34:59.354Z,100.00
2019-02-24T02:37:30.112Z,100.00
2019-02-24T02:40:01.299Z,100.00
2019-02-24T02:42:32.055Z,100.00
2019-02-24T02:45:05.348Z,100.00
2019-02-24T02:47:36.115Z,100.00
2019-02-24T02:50:06.869Z,100.00
2019-02-24T02:52:37.632Z,100.00
2019-02-24T02:55:08.399Z,100.00
2019-02-24T02:57:39.227Z,100.00
2019-02-24T03:00:28.102Z,100.00
2019-02-24T03:02:58.855Z,100.00
2019-02-24T03:05:29.619Z,100.00
2019-02-24T03:08:02.279Z,100.00
2019-02-24T03:10:33.054Z,100.00
2019-02-24T03:13:03.818Z,100.00
2019-02-24T03:15:34.587Z,100.00
2019-02-24T03:18:05.347Z,100.00
2019-02-24T03:20:36.114Z,100.00
2019-02-24T03:23:06.886Z,100.00
2019-02-24T03:25:37.670Z,100.00
2019-02-24T03:28:08.509Z,100.00
2019-02-24T03:30:39.277Z,100.00
2019-02-24T03:33:10.044Z,100.00
2019-02-24T03:35:40.800Z,100.00
2019-02-24T03:38:11.545Z,100.00
2019-02-24T03:40:42.319Z,100.00
2019-02-24T03:43:13.181Z,100.00
2019-02-24T03:45:43.951Z,100.00
2019-02-24T03:48:14.767Z,100.00
2019-02-24T03:50:45.473Z,100.00
2019-02-24T03:53:16.246Z,100.00
2019-02-24T03:55:47.027Z,100.00
2019-02-24T03:58:17.797Z,100.00
2019-02-24T04:00:48.610Z,100.00
2019-02-24T04:03:19.379Z,100.00
2019-02-24T04:05:50.142Z,100.00
2019-02-24T04:08:20.902Z,100.00
2019-02-24T04:10:51.661Z,100.00
2019-02-24T04:13:22.448Z,100.00
2019-02-24T04:15:53.442Z,100.00
2019-02-24T04:18:24.231Z,100.00
2019-02-24T04:20:55.045Z,100.00
2019-02-24T04:23:25.791Z,100.00
2019-02-24T04:25:56.563Z,100.00
2019-02-24T04:28:27.325Z,100.00
2019-02-24T04:30:58.086Z,100.00
2019-02-24T04:33:28.866Z,100.00
2019-02-24T04:35:59.617Z,100.00
2019-02-24T04:38:30.385Z,100.00
2019-02-24T04:41:01.140Z,100.00
2019-02-24T04:43:31.902Z,100.00
2019-02-24T04:46:02.689Z,100.00
2019-02-24T04:48:33.438Z,100.00
2019-02-24T04:51:04.199Z,100.00
2019-02-24T04:53:34.962Z,100.00
2019-02-24T04:56:05.715Z,100.00
2019-02-24T04:58:36.498Z,100.00
2019-02-24T05:01:07.272Z,100.00
2019-02-24T05:03:38.061Z,100.00
2019-02-24T05:06:08.894Z,100.00
2019-02-24T05:08:39.655Z,100.00
2019-02-24T05:11:10.422Z,100.00
2019-02-24T05:13:41.179Z,100.00
2019-02-24T05:16:11.945Z,100.00
2019-02-24T05:18:42.705Z,100.00
2019-02-24T05:21:13.454Z,100.00
2019-02-24T05:23:44.223Z,100.00
2019-02-24T05:26:14.986Z,100.00
2019-02-24T05:28:45.750Z,100.00
2019-02-24T05:31:16.501Z,100.00
2019-02-24T05:33:47.284Z,100.00
2019-02-24T05:36:18.042Z,100.00
2019-02-24T05:38:48.821Z,100.00
2019-02-24T05:41:19.602Z,100.00
2019-02-24T05:43:50.369Z,100.00
2019-02-24T05:46:21.141Z,100.00
2019-02-24T05:48:51.902Z,100.00
2019-02-24T05:51:22.653Z,100.00
2019-02-24T05:53:53.415Z,100.00
2019-02-24T05:56:24.176Z,100.00
2019-02-24T05:58:54.944Z,100.00
2019-02-24T06:01:25.714Z,100.00
2019-02-24T06:03:56.482Z,100.00
2019-02-24T06:06:27.252Z,100.00
2019-02-24T06:08:58.015Z,100.00
2019-02-24T06:11:28.771Z,100.00
2019-02-24T06:13:59.546Z,100.00
2019-02-24T06:16:30.305Z,100.00
2019-02-24T06:19:01.060Z,100.00
2019-02-24T06:21:31.814Z,100.00
2019-02-24T06:24:02.578Z,100.00
2019-02-24T06:26:33.334Z,100.00
2019-02-24T06:29:04.094Z,100.00
2019-02-24T06:31:34.868Z,100.00
2019-02-24T06:34:05.653Z,100.00
2019-02-24T06:36:36.423Z,100.00
2019-02-24T06:39:07.203Z,100.00
2019-02-24T06:41:37.974Z,100.00
2019-02-24T06:44:09.061Z,100.00
2019-02-24T06:46:39.819Z,100.00
2019-02-24T06:49:10.588Z,100.00
2019-02-24T06:51:41.338Z,100.00
2019-02-24T06:54:12.107Z,100.00
2019-02-24T06:56:42.860Z,100.00
2019-02-24T06:59:13.623Z,100.00
2019-02-24T07:01:44.392Z,100.00
2019-02-24T07:04:15.159Z,100.00
2019-02-24T07:06:45.926Z,100.00
2019-02-24T07:09:16.693Z,100.00
2019-02-24T07:11:47.450Z,100.00
2019-02-24T07:14:18.216Z,100.00
2019-02-24T07:16:48.967Z,100.00
2019-02-24T07:19:19.732Z,100.00
2019-02-24T07:21:50.490Z,100.00
2019-02-24T07:24:21.623Z,100.00
2019-02-24T07:26:52.442Z,100.00
2019-02-24T07:29:23.221Z,100.00
2019-02-24T07:31:53.993Z,100.00
2019-02-24T07:34:24.777Z,100.00
2019-02-24T07:36:55.532Z,100.00
2019-02-24T07:39:26.321Z,100.00
2019-02-24T07:41:57.091Z,100.00
2019-02-24T07:44:27.879Z,100.00
2019-02-24T07:46:58.730Z,100.00
2019-02-24T07:49:29.509Z,100.00
2019-02-24T07:52:00.292Z,100.00
2019-02-24T07:54:31.067Z,100.00
2019-02-24T07:57:01.834Z,100.00
2019-02-24T07:59:32.616Z,100.00
2019-02-24T08:02:03.375Z,100.00
2019-02-24T08:04:34.145Z,100.00
2019-02-24T08:07:04.901Z,100.00
2019-02-24T08:09:35.775Z,100.00
2019-02-24T08:12:06.527Z,100.00
2019-02-24T08:14:37.293Z,100.00
2019-02-24T08:17:08.046Z,100.00
2019-02-24T08:19:38.845Z,100.00
2019-02-24T08:22:09.617Z,100.00
2019-02-24T08:24:40.397Z,100.00
2019-02-24T08:27:11.151Z,100.00
2019-02-24T08:29:41.906Z,100.00
2019-02-24T08:32:12.666Z,100.00
2019-02-24T08:34:43.424Z,100.00
2019-02-24T08:37:14.236Z,100.00
2019-02-24T08:39:45.005Z,100.00
2019-02-24T08:42:15.765Z,100.00
2019-02-24T08:44:46.540Z,99.18
2019-02-24T08:47:17.307Z,91.32
2019-02-24T08:49:48.081Z,89.95
2019-02-24T08:52:18.838Z,83.69
2019-02-24T08:54:49.590Z,89.68
2019-02-24T08:57:20.618Z,88.92
2019-02-24T08:59:51.383Z,82.85
2019-02-24T09:02:22.152Z,87.06
2019-02-24T09:04:52.906Z,79.08
2019-02-24T09:07:23.685Z,81.34
2019-02-24T09:09:54.437Z,75.26
2019-02-24T09:12:25.249Z,68.74
2019-02-24T09:14:56.014Z,64.77
2019-02-24T09:17:26.792Z,70.33
2019-02-24T09:19:57.572Z,66.66
2019-02-24T09:22:28.332Z,62.99
2019-02-24T09:24:59.106Z,64.08
2019-02-24T09:27:29.887Z,64.74
2019-02-24T09:30:00.669Z,63.80
2019-02-24T09:32:31.437Z,58.34
2019-02-24T09:35:02.614Z,60.08
2019-02-24T09:37:33.395Z,59.43
2019-02-24T09:40:07.973Z,62.02
2019-02-24T09:42:38.743Z,61.26
2019-02-24T09:45:10.826Z,60.15
2019-02-24T09:47:46.771Z,60.63
2019-02-24T09:50:14.280Z,64.60
2019-02-24T09:52:45.062Z,61.15
2019-02-24T09:55:15.837Z,62.37
2019-02-24T09:57:46.620Z,66.61
2019-02-24T10:00:17.418Z,61.16
2019-02-24T10:02:48.202Z,54.25
2019-02-24T10:05:18.978Z,52.77
2019-02-24T10:07:49.746Z,54.46
2019-02-24T10:10:20.503Z,51.74
2019-02-24T10:12:51.266Z,51.72
2019-02-24T10:15:22.022Z,52.23
2019-02-24T10:17:52.785Z,54.26
2019-02-24T10:20:23.586Z,61.55
2019-02-24T10:22:54.365Z,64.33
2019-02-24T10:25:25.137Z,62.81
2019-02-24T10:27:55.927Z,58.01
2019-02-24T10:30:26.688Z,54.84
2019-02-24T10:32:57.458Z,54.26
2019-02-24T10:35:28.213Z,58.77
2019-02-24T10:37:58.980Z,60.02
2019-02-24T10:40:29.743Z,62.20
2019-02-24T10:43:00.510Z,63.24
2019-02-24T10:45:31.293Z,60.37
2019-02-24T10:48:02.079Z,59.54
2019-02-24T10:50:32.832Z,62.24
2019-02-24T10:53:03.590Z,63.75
2019-02-24T10:55:34.365Z,58.11
2019-02-24T10:58:05.121Z,57.63
2019-02-24T11:00:35.903Z,60.77
2019-02-24T11:03:06.657Z,59.51
2019-02-24T11:05:37.435Z,58.11
2019-02-24T11:08:08.193Z,59.23
2019-02-24T11:10:38.959Z,59.84
2019-02-24T11:13:09.711Z,58.05
2019-02-24T11:15:40.471Z,54.70
2019-02-24T11:18:11.223Z,53.09
2019-02-24T11:20:42.029Z,52.25
2019-02-24T11:23:12.783Z,53.94
2019-02-24T11:25:43.546Z,52.36
2019-02-24T11:28:14.327Z,54.23
2019-02-24T11:30:45.109Z,51.68
2019-02-24T11:33:15.889Z,51.13
2019-02-24T11:35:46.650Z,48.48
2019-02-24T11:38:17.402Z,50.26
2019-02-24T11:40:48.189Z,53.00
2019-02-24T11:54:01.036Z,53.30
2019-02-24T11:56:31.798Z,56.97
2019-02-24T11:59:02.563Z,57.74
2019-02-24T12:01:33.336Z,53.88
2019-02-24T12:04:04.114Z,52.16
2019-02-24T12:06:34.865Z,52.57
2019-02-24T12:09:05.638Z,50.75
2019-02-24T12:11:36.396Z,49.32
2019-02-24T12:14:07.205Z,47.73
2019-02-24T12:16:37.971Z,50.48
2019-02-24T12:19:08.751Z,52.11
2019-02-24T12:21:39.511Z,49.81
2019-02-24T12:24:10.264Z,47.73
2019-02-24T12:26:41.047Z,47.46
2019-02-24T12:29:11.806Z,49.41
2019-02-24T12:31:42.577Z,53.32
2019-02-24T12:34:13.334Z,49.28
2019-02-24T12:36:44.098Z,50.74
2019-02-24T12:39:14.859Z,50.64
2019-02-24T12:41:45.639Z,50.26
2019-02-24T12:44:16.395Z,49.13
2019-02-24T12:46:47.161Z,47.98
2019-02-24T12:49:17.922Z,48.17
2019-02-24T12:51:48.690Z,48.03
2019-02-24T12:54:19.450Z,48.81
2019-02-24T12:56:50.617Z,47.57
2019-02-24T12:59:21.377Z,46.00
2019-02-24T13:01:52.162Z,47.71
2019-02-24T13:04:22.929Z,48.40
2019-02-24T13:06:53.701Z,47.47
2019-02-24T13:09:24.465Z,47.37
2019-02-24T13:11:55.233Z,47.97
2019-02-24T13:14:26.095Z,47.10
2019-02-24T13:16:56.865Z,44.92
2019-02-24T13:19:27.625Z,43.28
2019-02-24T13:21:58.394Z,45.44
2019-02-24T13:24:29.151Z,46.38
2019-02-24T13:26:59.924Z,47.62
2019-02-24T13:29:30.681Z,47.83
2019-02-24T13:32:01.452Z,47.89
2019-02-24T13:34:32.219Z,46.99
2019-02-24T13:37:02.970Z,46.16
2019-02-24T13:39:33.729Z,46.36
2019-02-24T13:42:04.597Z,47.30
2019-02-24T13:44:35.384Z,46.94
2019-02-24T13:47:06.167Z,45.83
2019-02-24T13:49:36.919Z,44.72
2019-02-24T13:52:07.697Z,43.44
2019-02-24T13:54:38.461Z,45.14
2019-02-24T13:57:09.225Z,44.45
2019-02-24T13:59:39.982Z,44.25
2019-02-24T14:02:10.762Z,43.51
2019-02-24T14:04:41.526Z,42.74
2019-02-24T14:07:12.291Z,42.60
2019-02-24T14:09:43.055Z,44.51
2019-02-24T14:12:13.826Z,43.78
2019-02-24T14:14:49.099Z,42.44
2019-02-24T14:17:17.291Z,43.09
2019-02-24T14:19:48.047Z,44.28
2019-02-24T14:22:18.815Z,44.18
2019-02-24T14:24:49.582Z,44.70
2019-02-24T14:27:20.353Z,44.35
2019-02-24T14:29:51.142Z,44.87
2019-02-24T14:32:21.905Z,45.10
2019-02-24T14:34:52.670Z,46.05
2019-02-24T14:37:24.229Z,44.59
2019-02-24T14:39:55.035Z,44.95
2019-02-24T14:42:25.866Z,43.92
2019-02-24T14:44:56.762Z,45.29
2019-02-24T14:47:27.539Z,45.03
2019-02-24T14:49:58.297Z,44.66
2019-02-24T14:52:29.064Z,44.86
2019-02-24T14:54:59.831Z,46.38
2019-02-24T14:57:30.599Z,46.43
2019-02-24T15:00:02.670Z,46.48
2019-02-24T15:02:41.958Z,47.38
2019-02-24T15:05:08.823Z,47.04
2019-02-24T15:07:39.594Z,45.90
2019-02-24T15:10:21.814Z,46.00
2019-02-24T15:12:52.584Z,46.67
2019-02-24T15:15:33.119Z,46.84
2019-02-24T15:18:01.983Z,47.22
2019-02-24T15:20:32.774Z,47.68
2019-02-24T15:23:03.558Z,48.26
2019-02-24T15:25:34.307Z,48.91
2019-02-24T15:28:05.112Z,48.20
2019-02-24T15:30:37.492Z,48.42
2019-02-24T15:33:08.272Z,49.48
2019-02-24T15:35:39.020Z,48.92
2019-02-24T15:38:09.791Z,48.97
2019-02-24T15:40:40.811Z,49.97
2019-02-24T15:43:11.582Z,50.77
2019-02-24T15:45:42.337Z,51.95
2019-02-24T15:48:13.159Z,50.41
2019-02-24T15:50:44.249Z,50.53
2019-02-24T15:53:15.088Z,51.66
2019-02-24T15:55:45.925Z,51.42
2019-02-24T15:58:17.936Z,51.13
2019-02-24T16:00:48.972Z,51.09
2019-02-24T16:03:19.782Z,50.72
2019-02-24T16:05:50.538Z,50.73
2019-02-24T16:08:21.308Z,52.65
2019-02-24T16:10:52.069Z,53.36
2019-02-24T16:13:22.833Z,54.67
2019-02-24T16:15:53.626Z,54.35
2019-02-24T16:18:24.397Z,53.98
2019-02-24T16:20:55.217Z,55.08
2019-02-24T16:23:25.995Z,56.75
2019-02-24T16:25:56.785Z,56.04
2019-02-24T16:28:27.550Z,55.10
2019-02-24T16:30:58.342Z,56.65
2019-02-24T16:33:29.237Z,59.31
2019-02-24T16:35:59.993Z,61.22
2019-02-24T16:38:30.758Z,63.22
2019-02-24T16:41:01.516Z,63.33
2019-02-24T16:43:32.280Z,64.54
2019-02-24T16:46:03.055Z,66.61
2019-02-24T16:48:33.910Z,68.27
2019-02-24T16:51:04.668Z,69.83
2019-02-24T16:53:35.457Z,71.02
2019-02-24T16:56:06.309Z,72.05
2019-02-24T16:58:37.074Z,73.02
2019-02-24T17:01:07.844Z,73.71
2019-02-24T17:03:38.649Z,74.36
2019-02-24T17:06:09.465Z,74.74
2019-02-24T17:08:40.266Z,75.77
2019-02-24T17:11:11.062Z,77.07
2019-02-24T17:13:42.373Z,78.34
2019-02-24T17:16:13.183Z,77.96
2019-02-24T17:18:43.998Z,78.85
2019-02-24T17:21:14.801Z,78.80
2019-02-24T17:23:49.863Z,79.55
2019-02-24T17:26:18.360Z,80.09
2019-02-24T17:28:49.168Z,80.91
2019-02-24T17:31:28.068Z,81.08
2019-02-24T17:33:52.690Z,81.00
2019-02-24T17:36:23.494Z,81.58
2019-02-24T17:38:54.324Z,81.92
2019-02-24T17:41:25.133Z,82.50
2019-02-24T17:43:55.953Z,82.81
2019-02-24T17:46:26.755Z,83.01
2019-02-24T17:48:57.585Z,83.41
2019-02-24T17:51:28.369Z,84.97
2019-02-24T17:53:59.204Z,85.82
2019-02-24T17:56:30.013Z,86.06
2019-02-24T17:59:01.013Z,86.28
2019-02-24T18:01:31.833Z,87.82
2019-02-24T18:04:02.738Z,88.36
2019-02-24T18:06:33.548Z,88.76
2019-02-24T18:09:04.963Z,89.25
2019-02-24T18:11:35.776Z,89.83
2019-02-24T18:14:06.648Z,89.59
2019-02-24T18:16:37.413Z,89.40
2019-02-24T18:19:08.224Z,89.22
2019-02-24T18:21:39.022Z,89.41
2019-02-24T18:24:09.845Z,91.12
2019-02-24T18:26:40.653Z,91.48
2019-02-24T18:29:11.735Z,92.69
2019-02-24T18:31:42.545Z,94.06
2019-02-24T18:34:13.353Z,93.88
2019-02-24T18:36:44.161Z,93.53
2019-02-24T18:39:14.983Z,93.80
2019-02-24T18:41:45.742Z,94.83
2019-02-24T18:44:16.904Z,95.74
2019-02-24T18:46:47.710Z,96.01
2019-02-24T18:49:18.535Z,97.35
2019-02-24T18:51:49.284Z,96.76
2019-02-24T18:54:20.059Z,97.05
2019-02-24T18:56:50.890Z,97.51
2019-02-24T18:59:21.707Z,97.71
2019-02-24T19:01:52.517Z,97.64
2019-02-24T19:04:23.466Z,98.80
2019-02-24T19:06:54.619Z,99.26
2019-02-24T19:09:25.511Z,99.36
2019-02-24T19:11:56.293Z,99.92
2019-02-24T19:14:27.050Z,100.00
2019-02-24T19:16:57.854Z,100.00
2019-02-24T19:19:28.667Z,100.00
2019-02-24T19:21:59.535Z,100.00
2019-02-24T19:24:30.364Z,100.00
2019-02-24T19:27:01.161Z,100.00
2019-02-24T19:29:31.923Z,100.00
2019-02-24T19:32:02.686Z,100.00
2019-02-24T19:34:33.440Z,100.00
2019-02-24T19:37:04.239Z,100.00
2019-02-24T19:39:35.120Z,100.00
2019-02-24T19:42:05.885Z,100.00
2019-02-24T19:44:36.743Z,100.00
2019-02-24T19:47:07.504Z,100.00
2019-02-24T19:49:38.262Z,100.00
2019-02-24T19:52:09.025Z,100.00
2019-02-24T19:54:39.880Z,100.00
2019-02-24T19:57:10.646Z,100.00
2019-02-24T19:59:41.404Z,100.00
2019-02-24T20:02:12.182Z,100.00
2019-02-24T20:04:42.954Z,100.00
2019-02-24T20:07:13.766Z,100.00
2019-02-24T20:09:44.541Z,100.00
2019-02-24T20:12:15.310Z,100.00
2019-02-24T20:14:46.093Z,100.00
2019-02-24T20:17:16.858Z,100.00
2019-02-24T20:19:47.632Z,100.00
2019-02-24T20:22:18.417Z,100.00
2019-02-24T20:24:49.170Z,100.00
2019-02-24T20:27:19.940Z,100.00
2019-02-24T20:29:50.697Z,100.00
2019-02-24T20:32:21.463Z,100.00
2019-02-24T20:34:52.243Z,100.00
2019-02-24T20:37:23.013Z,100.00
2019-02-24T20:39:53.771Z,100.00
2019-02-24T20:42:24.534Z,100.00
2019-02-24T20:44:55.328Z,100.00
2019-02-24T20:47:26.107Z,100.00
2019-02-24T20:49:56.863Z,100.00
2019-02-24T20:52:27.664Z,100.00
2019-02-24T20:54:58.484Z,100.00
2019-02-24T20:57:29.315Z,100.00
2019-02-24T21:00:00.228Z,100.00
2019-02-24T21:02:31.166Z,100.00
2019-02-24T21:05:02.872Z,100.00
2019-02-24T21:07:33.682Z,100.00
2019-02-24T21:10:07.798Z,100.00
2019-02-24T21:12:38.614Z,100.00
2019-02-24T21:15:13.992Z,100.00
2019-02-24T21:17:44.821Z,100.00
2019-02-24T21:20:17.904Z,100.00
2019-02-24T21:22:50.487Z,100.00
2019-02-24T21:25:21.498Z,100.00
2019-02-24T21:27:52.328Z,100.00
2019-02-24T21:30:23.481Z,100.00
2019-02-24T21:32:54.331Z,100.00
2019-02-24T21:35:25.147Z,100.00
2019-02-24T21:37:55.990Z,100.00
2019-02-24T21:40:26.822Z,100.00
2019-02-24T21:42:57.657Z,100.00
2019-02-24T21:45:28.579Z,100.00
2019-02-24T21:47:59.392Z,100.00
2019-02-24T21:50:30.406Z,100.00
2019-02-24T21:53:01.233Z,100.00
2019-02-24T21:55:32.055Z,100.00
2019-02-24T21:58:04.388Z,100.00
2019-02-24T22:00:36.098Z,100.00
2019-02-24T22:03:06.911Z,100.00
2019-02-24T22:05:37.721Z,100.00
2019-02-24T22:08:08.537Z,100.00
2019-02-24T22:10:39.353Z,100.00
2019-02-24T22:13:10.169Z,100.00
2019-02-24T22:15:40.964Z,100.00
2019-02-24T22:18:11.772Z,100.00
2019-02-24T22:20:42.578Z,100.00
2019-02-24T22:23:13.390Z,100.00
2019-02-24T22:25:44.208Z,100.00
2019-02-24T22:28:15.034Z,100.00
2019-02-24T22:30:45.839Z,100.00
2019-02-24T22:33:16.649Z,100.00
2019-02-24T22:35:47.444Z,100.00
2019-02-24T22:38:18.251Z,100.00
2019-02-24T22:40:54.405Z,100.00
2019-02-24T22:43:21.783Z,100.00
2019-02-24T22:45:52.574Z,100.00
2019-02-24T22:48:23.371Z,100.00
2019-02-24T22:50:54.196Z,100.00
2019-02-24T22:53:25.019Z,100.00
2019-02-24T22:55:55.834Z,100.00
2019-02-24T22:58:26.640Z,100.00
2019-02-24T23:01:01.076Z,100.00
2019-02-24T23:03:33.591Z,100.00
2019-02-24T23:06:04.645Z,100.00
2019-02-24T23:08:35.419Z,100.00
2019-02-24T23:11:06.278Z,100.00
2019-02-24T23:13:39.259Z,100.00
2019-02-24T23:16:09.806Z,100.00
2019-02-24T23:18:40.628Z,100.00
2019-02-24T23:21:11.440Z,100.00
2019-02-24T23:23:42.255Z,100.00
2019-02-24T23:26:13.075Z,100.00
2019-02-24T23:28:43.888Z,100.00
2019-02-24T23:31:14.778Z,100.00
2019-02-24T23:33:45.606Z,100.00
2019-02-24T23:36:16.400Z,100.00
2019-02-24T23:38:47.211Z,100.00
2019-02-24T23:41:18.006Z,100.00
2019-02-24T23:43:48.858Z,100.00
2019-02-24T23:46:19.657Z,100.00
2019-02-24T23:48:50.474Z,100.00
2019-02-24T23:51:21.279Z,100.00
2019-02-24T23:53:52.108Z,100.00
2019-02-24T23:56:22.905Z,100.00
2019-02-24T23:58:53.733Z,100.00
